sensor_id;sensor_type;location;lat;lon;timestamp;temperature;humidity
47114;DHT22;32867;51.556;6.832;2022-11-21T00:00:29;6.50;99.90
47114;DHT22;32867;51.556;6.832;2022-11-21T00:05:31;6.30;99.90
47114;DHT22;32867;51.556;6.832;2022-11-21T00:10:32;6.30;99.90
47114;DHT22;32867;51.556;6.832;2022-11-21T00:15:33;6.20;99.90
47114;DHT22;32867;51.556;6.832;2022-11-21T00:20:37;6.30;99.90
47114;DHT22;32867;51.556;6.832;2022-11-21T00:25:38;6.40;99.90
47114;DHT22;32867;51.556;6.832;2022-11-21T00:30:38;6.30;99.90
47114;DHT22;32867;51.556;6.832;2022-11-21T00:35:39;6.40;99.90
47114;DHT22;32867;51.556;6.832;2022-11-21T00:40:42;6.40;99.90
47114;DHT22;32867;51.556;6.832;2022-11-21T00:45:42;6.40;99.90
47114;DHT22;32867;51.556;6.832;2022-11-21T00:50:43;6.30;99.90
47114;DHT22;32867;51.556;6.832;2022-11-21T00:55:44;6.40;99.90
47114;DHT22;32867;51.556;6.832;2022-11-21T01:00:44;6.40;99.90
47114;DHT22;32867;51.556;6.832;2022-11-21T01:05:45;6.40;99.90
47114;DHT22;32867;51.556;6.832;2022-11-21T01:10:45;6.40;99.90
47114;DHT22;32867;51.556;6.832;2022-11-21T01:15:46;6.30;99.90
47114;DHT22;32867;51.556;6.832;2022-11-21T01:20:47;6.40;99.90
47114;DHT22;32867;51.556;6.832;2022-11-21T01:25:47;6.40;99.90
47114;DHT22;32867;51.556;6.832;2022-11-21T01:30:48;6.40;99.90
47114;DHT22;32867;51.556;6.832;2022-11-21T01:35:48;6.40;99.90
47114;DHT22;32867;51.556;6.832;2022-11-21T01:40:49;6.40;99.90
47114;DHT22;32867;51.556;6.832;2022-11-21T01:46:03;6.40;99.90
47114;DHT22;32867;51.556;6.832;2022-11-21T01:51:13;6.40;99.90
47114;DHT22;32867;51.556;6.832;2022-11-21T01:56:15;6.40;99.90
47114;DHT22;32867;51.556;6.832;2022-11-21T02:01:16;6.40;99.90
47114;DHT22;32867;51.556;6.832;2022-11-21T02:06:17;6.40;99.90
47114;DHT22;32867;51.556;6.832;2022-11-21T02:11:35;6.40;99.90
47114;DHT22;32867;51.556;6.832;2022-11-21T02:16:37;6.40;99.90
47114;DHT22;32867;51.556;6.832;2022-11-21T02:21:54;6.40;99.90
47114;DHT22;32867;51.556;6.832;2022-11-21T02:26:56;6.30;99.90
47114;DHT22;32867;51.556;6.832;2022-11-21T02:32:04;6.30;99.90
47114;DHT22;32867;51.556;6.832;2022-11-21T02:37:08;6.30;99.90
47114;DHT22;32867;51.556;6.832;2022-11-21T02:47:34;6.30;99.90
47114;DHT22;32867;51.556;6.832;2022-11-21T02:52:37;6.40;99.90
47114;DHT22;32867;51.556;6.832;2022-11-21T02:57:38;6.30;99.90
47114;DHT22;32867;51.556;6.832;2022-11-21T03:02:39;6.40;99.90
47114;DHT22;32867;51.556;6.832;2022-11-21T03:07:40;6.30;99.90
47114;DHT22;32867;51.556;6.832;2022-11-21T03:12:41;6.40;99.90
47114;DHT22;32867;51.556;6.832;2022-11-21T03:17:42;6.40;99.90
47114;DHT22;32867;51.556;6.832;2022-11-21T03:22:43;6.30;99.90
47114;DHT22;32867;51.556;6.832;2022-11-21T03:27:43;6.30;99.90
47114;DHT22;32867;51.556;6.832;2022-11-21T03:32:44;6.30;99.90
47114;DHT22;32867;51.556;6.832;2022-11-21T03:37:47;6.40;99.90
47114;DHT22;32867;51.556;6.832;2022-11-21T03:42:48;6.30;99.90
47114;DHT22;32867;51.556;6.832;2022-11-21T03:47:48;6.30;99.90
47114;DHT22;32867;51.556;6.832;2022-11-21T03:52:49;6.30;99.90
47114;DHT22;32867;51.556;6.832;2022-11-21T03:57:49;6.30;99.90
47114;DHT22;32867;51.556;6.832;2022-11-21T04:02:50;6.20;99.90
47114;DHT22;32867;51.556;6.832;2022-11-21T04:07:51;6.20;99.90
47114;DHT22;32867;51.556;6.832;2022-11-21T04:12:53;6.10;99.90
47114;DHT22;32867;51.556;6.832;2022-11-21T04:17:53;6.20;99.90
47114;DHT22;32867;51.556;6.832;2022-11-21T04:22:54;6.10;99.90
47114;DHT22;32867;51.556;6.832;2022-11-21T04:27:56;6.20;99.90
47114;DHT22;32867;51.556;6.832;2022-11-21T04:32:56;6.10;99.90
47114;DHT22;32867;51.556;6.832;2022-11-21T04:37:57;6.00;99.90
47114;DHT22;32867;51.556;6.832;2022-11-21T04:42:58;5.80;99.90
47114;DHT22;32867;51.556;6.832;2022-11-21T04:47:58;5.80;99.90
47114;DHT22;32867;51.556;6.832;2022-11-21T04:52:59;5.90;99.90
47114;DHT22;32867;51.556;6.832;2022-11-21T04:57:59;6.00;99.90
47114;DHT22;32867;51.556;6.832;2022-11-21T05:03:04;6.00;99.90
47114;DHT22;32867;51.556;6.832;2022-11-21T05:08:05;6.10;99.90
47114;DHT22;32867;51.556;6.832;2022-11-21T05:13:08;6.00;99.90
47114;DHT22;32867;51.556;6.832;2022-11-21T05:18:21;6.00;99.90
47114;DHT22;32867;51.556;6.832;2022-11-21T05:23:22;6.10;99.90
47114;DHT22;32867;51.556;6.832;2022-11-21T05:28:22;6.20;99.90
47114;DHT22;32867;51.556;6.832;2022-11-21T05:33:23;6.20;99.90
47114;DHT22;32867;51.556;6.832;2022-11-21T05:38:24;6.30;99.90
47114;DHT22;32867;51.556;6.832;2022-11-21T05:43:24;6.30;99.90
47114;DHT22;32867;51.556;6.832;2022-11-21T05:48:45;6.40;99.90
47114;DHT22;32867;51.556;6.832;2022-11-21T05:53:46;6.40;99.90
47114;DHT22;32867;51.556;6.832;2022-11-21T05:58:47;6.50;99.90
47114;DHT22;32867;51.556;6.832;2022-11-21T06:03:48;6.50;99.90
47114;DHT22;32867;51.556;6.832;2022-11-21T06:08:48;6.50;99.90
47114;DHT22;32867;51.556;6.832;2022-11-21T06:13:50;6.40;99.90
47114;DHT22;32867;51.556;6.832;2022-11-21T06:18:51;6.50;99.90
47114;DHT22;32867;51.556;6.832;2022-11-21T06:23:54;6.50;99.90
47114;DHT22;32867;51.556;6.832;2022-11-21T06:28:55;6.50;99.90
47114;DHT22;32867;51.556;6.832;2022-11-21T06:33:57;6.50;99.90
47114;DHT22;32867;51.556;6.832;2022-11-21T06:38:58;6.50;99.90
47114;DHT22;32867;51.556;6.832;2022-11-21T06:43:58;6.50;99.90
47114;DHT22;32867;51.556;6.832;2022-11-21T06:49:02;6.30;99.90
47114;DHT22;32867;51.556;6.832;2022-11-21T06:54:03;6.20;99.90
47114;DHT22;32867;51.556;6.832;2022-11-21T06:59:04;6.20;99.90
47114;DHT22;32867;51.556;6.832;2022-11-21T07:04:04;6.00;99.90
47114;DHT22;32867;51.556;6.832;2022-11-21T07:09:05;5.90;99.90
47114;DHT22;32867;51.556;6.832;2022-11-21T07:14:06;5.90;99.90
47114;DHT22;32867;51.556;6.832;2022-11-21T07:19:06;6.00;99.90
47114;DHT22;32867;51.556;6.832;2022-11-21T07:24:07;6.10;99.90
47114;DHT22;32867;51.556;6.832;2022-11-21T07:29:08;6.00;99.90
47114;DHT22;32867;51.556;6.832;2022-11-21T07:34:08;6.00;99.90
47114;DHT22;32867;51.556;6.832;2022-11-21T07:39:09;6.00;99.90
47114;DHT22;32867;51.556;6.832;2022-11-21T07:44:09;6.20;99.90
47114;DHT22;32867;51.556;6.832;2022-11-21T07:49:10;6.40;99.90
47114;DHT22;32867;51.556;6.832;2022-11-21T07:54:11;6.60;99.90
47114;DHT22;32867;51.556;6.832;2022-11-21T07:59:11;6.80;99.90
47114;DHT22;32867;51.556;6.832;2022-11-21T08:04:12;6.80;99.90
47114;DHT22;32867;51.556;6.832;2022-11-21T08:09:12;6.90;99.90
47114;DHT22;32867;51.556;6.832;2022-11-21T08:14:13;7.00;99.90
47114;DHT22;32867;51.556;6.832;2022-11-21T08:19:14;7.10;99.90
47114;DHT22;32867;51.556;6.832;2022-11-21T08:24:14;7.00;99.90
47114;DHT22;32867;51.556;6.832;2022-11-21T08:29:16;7.10;99.90
47114;DHT22;32867;51.556;6.832;2022-11-21T08:34:17;7.10;99.90
47114;DHT22;32867;51.556;6.832;2022-11-21T08:39:18;6.90;99.90
47114;DHT22;32867;51.556;6.832;2022-11-21T08:44:18;6.90;99.90
47114;DHT22;32867;51.556;6.832;2022-11-21T08:49:19;6.90;99.90
47114;DHT22;32867;51.556;6.832;2022-11-21T08:54:21;6.90;99.90
47114;DHT22;32867;51.556;6.832;2022-11-21T08:59:22;7.00;99.90
47114;DHT22;32867;51.556;6.832;2022-11-21T09:04:22;7.00;99.90
47114;DHT22;32867;51.556;6.832;2022-11-21T09:09:23;7.20;99.90
47114;DHT22;32867;51.556;6.832;2022-11-21T09:14:24;7.30;99.90
47114;DHT22;32867;51.556;6.832;2022-11-21T09:19:43;7.20;99.90
47114;DHT22;32867;51.556;6.832;2022-11-21T09:24:44;7.10;99.90
47114;DHT22;32867;51.556;6.832;2022-11-21T09:29:44;7.20;99.90
47114;DHT22;32867;51.556;6.832;2022-11-21T09:34:45;7.10;99.90
47114;DHT22;32867;51.556;6.832;2022-11-21T09:39:46;7.30;99.90
47114;DHT22;32867;51.556;6.832;2022-11-21T10:00:36;7.70;99.90
47114;DHT22;32867;51.556;6.832;2022-11-21T10:05:47;7.80;99.90
47114;DHT22;32867;51.556;6.832;2022-11-21T10:11:12;7.90;99.90
47114;DHT22;32867;51.556;6.832;2022-11-21T10:16:33;8.00;99.90
47114;DHT22;32867;51.556;6.832;2022-11-21T10:26:57;8.10;99.90
47114;DHT22;32867;51.556;6.832;2022-11-21T10:32:02;8.30;99.90
47114;DHT22;32867;51.556;6.832;2022-11-21T10:37:36;8.00;99.90
47114;DHT22;32867;51.556;6.832;2022-11-21T10:42:44;8.20;99.90
47114;DHT22;32867;51.556;6.832;2022-11-21T10:47:52;8.30;99.90
47114;DHT22;32867;51.556;6.832;2022-11-21T10:53:17;8.30;99.90
47114;DHT22;32867;51.556;6.832;2022-11-21T10:58:43;8.20;99.90
47114;DHT22;32867;51.556;6.832;2022-11-21T11:03:44;8.20;99.90
47114;DHT22;32867;51.556;6.832;2022-11-21T11:08:52;8.30;99.90
47114;DHT22;32867;51.556;6.832;2022-11-21T11:14:03;9.00;99.90
47114;DHT22;32867;51.556;6.832;2022-11-21T11:19:15;9.40;99.90
47114;DHT22;32867;51.556;6.832;2022-11-21T11:34:20;9.90;99.90
47114;DHT22;32867;51.556;6.832;2022-11-21T11:39:32;10.00;99.90
47114;DHT22;32867;51.556;6.832;2022-11-21T11:50:36;9.60;99.90
47114;DHT22;32867;51.556;6.832;2022-11-21T12:01:17;9.30;99.90
47114;DHT22;32867;51.556;6.832;2022-11-21T12:17:08;9.10;99.90
47114;DHT22;32867;51.556;6.832;2022-11-21T12:22:09;9.20;99.90
47114;DHT22;32867;51.556;6.832;2022-11-21T12:27:27;9.30;99.90
47114;DHT22;32867;51.556;6.832;2022-11-21T12:32:52;9.40;99.90
47114;DHT22;32867;51.556;6.832;2022-11-21T12:43:53;10.40;99.90
47114;DHT22;32867;51.556;6.832;2022-11-21T12:49:12;11.20;99.90
47114;DHT22;32867;51.556;6.832;2022-11-21T12:54:47;12.70;99.90
47114;DHT22;32867;51.556;6.832;2022-11-21T13:00:24;13.10;99.90
47114;DHT22;32867;51.556;6.832;2022-11-21T13:05:29;12.30;99.90
47114;DHT22;32867;51.556;6.832;2022-11-21T13:10:31;11.40;99.90
47114;DHT22;32867;51.556;6.832;2022-11-21T13:15:51;11.40;99.90
47114;DHT22;32867;51.556;6.832;2022-11-21T13:20:54;11.60;99.90
47114;DHT22;32867;51.556;6.832;2022-11-21T13:25:55;11.80;99.90
47114;DHT22;32867;51.556;6.832;2022-11-21T13:30:57;11.60;99.90
47114;DHT22;32867;51.556;6.832;2022-11-21T13:41:00;11.30;99.90
47114;DHT22;32867;51.556;6.832;2022-11-21T13:57:45;11.20;99.90
47114;DHT22;32867;51.556;6.832;2022-11-21T14:08:22;11.40;99.90
47114;DHT22;32867;51.556;6.832;2022-11-21T14:13:36;11.50;99.90
47114;DHT22;32867;51.556;6.832;2022-11-21T14:18:40;11.40;99.90
47114;DHT22;32867;51.556;6.832;2022-11-21T14:23:42;11.20;99.90
47114;DHT22;32867;51.556;6.832;2022-11-21T14:28:44;10.90;99.90
47114;DHT22;32867;51.556;6.832;2022-11-21T14:33:46;10.80;99.90
47114;DHT22;32867;51.556;6.832;2022-11-21T14:38:54;10.80;99.90
47114;DHT22;32867;51.556;6.832;2022-11-21T14:54:19;10.40;99.90
47114;DHT22;32867;51.556;6.832;2022-11-21T14:59:24;10.10;99.90
47114;DHT22;32867;51.556;6.832;2022-11-21T15:04:31;10.00;99.90
47114;DHT22;32867;51.556;6.832;2022-11-21T15:09:32;9.90;99.90
47114;DHT22;32867;51.556;6.832;2022-11-21T15:14:49;9.80;99.90
47114;DHT22;32867;51.556;6.832;2022-11-21T15:20:25;9.70;99.90
47114;DHT22;32867;51.556;6.832;2022-11-21T15:25:29;9.70;99.90
47114;DHT22;32867;51.556;6.832;2022-11-21T15:30:33;9.70;99.90
47114;DHT22;32867;51.556;6.832;2022-11-21T15:40:57;9.50;99.90
47114;DHT22;32867;51.556;6.832;2022-11-21T15:46:03;9.30;99.90
47114;DHT22;32867;51.556;6.832;2022-11-21T15:51:04;9.10;99.90
47114;DHT22;32867;51.556;6.832;2022-11-21T15:56:05;9.00;99.90
47114;DHT22;32867;51.556;6.832;2022-11-21T16:01:13;8.90;99.90
47114;DHT22;32867;51.556;6.832;2022-11-21T16:06:14;8.80;99.90
47114;DHT22;32867;51.556;6.832;2022-11-21T16:16:27;8.70;99.90
47114;DHT22;32867;51.556;6.832;2022-11-21T16:21:28;8.70;99.90
47114;DHT22;32867;51.556;6.832;2022-11-21T16:26:29;8.60;99.90
47114;DHT22;32867;51.556;6.832;2022-11-21T16:31:30;8.60;99.90
47114;DHT22;32867;51.556;6.832;2022-11-21T16:36:31;8.70;99.90
47114;DHT22;32867;51.556;6.832;2022-11-21T16:41:32;8.70;99.90
47114;DHT22;32867;51.556;6.832;2022-11-21T16:46:33;8.70;99.90
47114;DHT22;32867;51.556;6.832;2022-11-21T16:51:34;8.90;99.90
47114;DHT22;32867;51.556;6.832;2022-11-21T16:56:35;8.80;99.90
47114;DHT22;32867;51.556;6.832;2022-11-21T17:01:36;8.70;99.90
47114;DHT22;32867;51.556;6.832;2022-11-21T17:06:36;8.60;99.90
47114;DHT22;32867;51.556;6.832;2022-11-21T17:11:37;8.60;99.90
47114;DHT22;32867;51.556;6.832;2022-11-21T17:16:38;8.70;99.90
47114;DHT22;32867;51.556;6.832;2022-11-21T17:21:41;8.80;99.90
47114;DHT22;32867;51.556;6.832;2022-11-21T17:26:43;8.80;99.90
47114;DHT22;32867;51.556;6.832;2022-11-21T17:31:44;8.90;99.90
47114;DHT22;32867;51.556;6.832;2022-11-21T17:36:44;8.90;99.90
47114;DHT22;32867;51.556;6.832;2022-11-21T17:41:45;8.90;99.90
47114;DHT22;32867;51.556;6.832;2022-11-21T17:46:46;8.80;99.90
47114;DHT22;32867;51.556;6.832;2022-11-21T17:51:47;8.80;99.90
47114;DHT22;32867;51.556;6.832;2022-11-21T17:56:48;8.90;99.90
47114;DHT22;32867;51.556;6.832;2022-11-21T18:01:48;8.80;99.90
47114;DHT22;32867;51.556;6.832;2022-11-21T18:06:49;8.90;99.90
47114;DHT22;32867;51.556;6.832;2022-11-21T18:11:50;9.00;99.90
47114;DHT22;32867;51.556;6.832;2022-11-21T18:16:52;8.80;99.90
47114;DHT22;32867;51.556;6.832;2022-11-21T18:21:53;8.70;99.90
47114;DHT22;32867;51.556;6.832;2022-11-21T18:26:54;8.70;99.90
47114;DHT22;32867;51.556;6.832;2022-11-21T18:31:55;8.70;99.90
47114;DHT22;32867;51.556;6.832;2022-11-21T18:36:55;8.70;99.90
47114;DHT22;32867;51.556;6.832;2022-11-21T18:41:56;8.60;99.90
47114;DHT22;32867;51.556;6.832;2022-11-21T18:46:57;8.50;99.90
47114;DHT22;32867;51.556;6.832;2022-11-21T18:51:58;8.50;99.90
47114;DHT22;32867;51.556;6.832;2022-11-21T18:56:59;8.50;99.90
47114;DHT22;32867;51.556;6.832;2022-11-21T19:01:59;8.60;99.90
47114;DHT22;32867;51.556;6.832;2022-11-21T19:07:00;8.50;99.90
47114;DHT22;32867;51.556;6.832;2022-11-21T19:12:01;8.50;99.90
47114;DHT22;32867;51.556;6.832;2022-11-21T19:17:01;8.40;99.90
47114;DHT22;32867;51.556;6.832;2022-11-21T19:22:02;8.30;99.90
47114;DHT22;32867;51.556;6.832;2022-11-21T19:27:05;8.30;99.90
47114;DHT22;32867;51.556;6.832;2022-11-21T19:32:05;8.50;99.90
47114;DHT22;32867;51.556;6.832;2022-11-21T19:37:06;8.50;99.90
47114;DHT22;32867;51.556;6.832;2022-11-21T19:42:07;8.50;99.90
47114;DHT22;32867;51.556;6.832;2022-11-21T19:47:08;8.50;99.90
47114;DHT22;32867;51.556;6.832;2022-11-21T19:52:10;8.50;99.90
47114;DHT22;32867;51.556;6.832;2022-11-21T19:57:10;8.60;99.90
47114;DHT22;32867;51.556;6.832;2022-11-21T20:02:17;8.50;99.90
47114;DHT22;32867;51.556;6.832;2022-11-21T20:07:18;8.60;99.90
47114;DHT22;32867;51.556;6.832;2022-11-21T20:12:19;8.90;99.90
47114;DHT22;32867;51.556;6.832;2022-11-21T20:17:19;8.80;99.90
47114;DHT22;32867;51.556;6.832;2022-11-21T20:22:20;8.90;99.90
47114;DHT22;32867;51.556;6.832;2022-11-21T20:27:21;8.90;99.90
47114;DHT22;32867;51.556;6.832;2022-11-21T20:32:22;8.70;99.90
47114;DHT22;32867;51.556;6.832;2022-11-21T20:37:22;9.00;99.90
47114;DHT22;32867;51.556;6.832;2022-11-21T20:42:23;9.00;99.90
47114;DHT22;32867;51.556;6.832;2022-11-21T20:47:24;8.90;99.90
47114;DHT22;32867;51.556;6.832;2022-11-21T20:52:24;8.80;99.90
47114;DHT22;32867;51.556;6.832;2022-11-21T20:57:25;8.70;99.90
47114;DHT22;32867;51.556;6.832;2022-11-21T21:02:26;8.70;99.90
47114;DHT22;32867;51.556;6.832;2022-11-21T21:07:27;8.70;99.90
47114;DHT22;32867;51.556;6.832;2022-11-21T21:12:28;8.80;99.90
47114;DHT22;32867;51.556;6.832;2022-11-21T21:17:30;8.80;99.90
47114;DHT22;32867;51.556;6.832;2022-11-21T21:22:31;8.90;99.90
47114;DHT22;32867;51.556;6.832;2022-11-21T21:27:31;9.00;99.90
47114;DHT22;32867;51.556;6.832;2022-11-21T21:32:33;9.00;99.90
47114;DHT22;32867;51.556;6.832;2022-11-21T21:37:33;9.10;99.90
47114;DHT22;32867;51.556;6.832;2022-11-21T21:42:34;9.20;99.90
47114;DHT22;32867;51.556;6.832;2022-11-21T21:47:35;9.10;99.90
47114;DHT22;32867;51.556;6.832;2022-11-21T21:52:35;9.10;99.90
47114;DHT22;32867;51.556;6.832;2022-11-21T21:57:36;9.10;99.90
47114;DHT22;32867;51.556;6.832;2022-11-21T22:02:37;9.20;99.90
47114;DHT22;32867;51.556;6.832;2022-11-21T22:07:38;9.30;99.90
47114;DHT22;32867;51.556;6.832;2022-11-21T22:12:39;9.20;99.90
47114;DHT22;32867;51.556;6.832;2022-11-21T22:17:40;9.20;99.90
47114;DHT22;32867;51.556;6.832;2022-11-21T22:22:40;9.30;99.90
47114;DHT22;32867;51.556;6.832;2022-11-21T22:27:41;9.30;99.90
47114;DHT22;32867;51.556;6.832;2022-11-21T22:32:42;9.20;99.90
47114;DHT22;32867;51.556;6.832;2022-11-21T22:37:42;9.30;99.90
47114;DHT22;32867;51.556;6.832;2022-11-21T22:42:43;9.20;99.90
47114;DHT22;32867;51.556;6.832;2022-11-21T22:47:44;9.20;99.90
47114;DHT22;32867;51.556;6.832;2022-11-21T22:52:45;9.10;99.90
47114;DHT22;32867;51.556;6.832;2022-11-21T22:57:45;9.20;99.90
47114;DHT22;32867;51.556;6.832;2022-11-21T23:02:46;9.30;99.90
47114;DHT22;32867;51.556;6.832;2022-11-21T23:07:47;9.00;99.90
47114;DHT22;32867;51.556;6.832;2022-11-21T23:12:47;8.80;99.90
47114;DHT22;32867;51.556;6.832;2022-11-21T23:17:51;8.90;99.90
47114;DHT22;32867;51.556;6.832;2022-11-21T23:22:52;8.70;99.90
47114;DHT22;32867;51.556;6.832;2022-11-21T23:27:55;8.50;99.90
47114;DHT22;32867;51.556;6.832;2022-11-21T23:32:55;8.70;99.90
47114;DHT22;32867;51.556;6.832;2022-11-21T23:37:56;8.50;99.90
47114;DHT22;32867;51.556;6.832;2022-11-21T23:42:57;8.50;99.90
47114;DHT22;32867;51.556;6.832;2022-11-21T23:47:58;8.40;99.90
47114;DHT22;32867;51.556;6.832;2022-11-21T23:52:58;8.50;99.90
47114;DHT22;32867;51.556;6.832;2022-11-21T23:57:59;8.60;99.90
